Standale, Michigan
Current Conditions -  °F | °C
As of 2:53 AM on Saturday 20 Dec 2014 (Local Time) from KGRR Reporting Station
Clear Clear  
Wind Chill: 19°   Ceiling: Unl
Heat Index: 19°   Visibility: 9mi
Dew Point: 16°   Wind: 0mph
Humidity: 88%   Direction: NA
Pressure: 30.27"   Gusts: NA
Location:  42.9769°N, 85.7689°W
Report Text: KGRR 200753Z AUTO 00000KT 9SM CLR M07/M09 A3027 RMK AO2 SLP263 I1000 T10721089
Loading
Personal Weather Stations






























Interactive Weather Map New forecast layout! Learn more

10-Day Weather Forecast

Advertisements
Track Severe Weather on mobile